Time;durP1;ratioP1;P1;durP2;ratioP2;P2;SDS_P1;SDS_P2;PMS_P1;PMS_P2;Temp;Humidity;BMP_temperature;BMP_pressure;BME280_temperature;BME280_humidity;BME280_pressure;Samples;Min_cycle;Max_cycle;Signal;HPM_P1;HPM_P2
2023/10/20 00:04:16;;;;;;;63.05;32.28;;;;;;;9.51;100.00;151065.63;10587141;28;20065;-70
2023/10/20 00:09:18;;;;;;;55.95;31.15;;;;;;;9.45;100.00;151050.16;10587058;28;20043;-70
2023/10/20 00:14:19;;;;;;;59.75;31.92;;;;;;;9.41;100.00;151039.84;10585609;28;20118;-70
2023/10/20 00:19:21;;;;;;;55.33;30.25;;;;;;;9.55;100.00;151075.94;10588113;28;20123;-69
2023/10/20 00:24:23;;;;;;;50.88;31.33;;;;;;;9.46;100.00;151052.75;10568149;28;20050;-69
2023/10/20 00:29:25;;;;;;;59.25;31.92;;;;;;;9.55;100.00;151074.66;10586525;28;20039;-69
2023/10/20 00:34:27;;;;;;;53.28;30.55;;;;;;;9.59;100.00;151086.28;10585920;28;20036;-69
2023/10/20 00:39:30;;;;;;;59.72;31.58;;;;;;;9.67;100.00;151104.38;10568667;28;20093;-69
2023/10/20 00:44:31;;;;;;;67.03;32.47;;;;;;;9.67;100.00;151105.66;10585513;28;20212;-70
2023/10/20 00:49:36;;;;;;;61.85;32.65;;;;;;;9.64;100.00;151096.59;10586937;28;20384;-70
2023/10/20 00:54:37;;;;;;;63.97;32.17;;;;;;;9.64;100.00;151096.59;10584935;28;20093;-70
2023/10/20 00:59:39;;;;;;;53.22;31.42;;;;;;;9.70;100.00;151112.13;10585698;28;20067;-70
2023/10/20 01:04:41;;;;;;;52.28;31.88;;;;;;;9.53;100.00;151070.81;10585603;28;20134;-70
2023/10/20 01:09:43;;;;;;;52.88;32.17;;;;;;;9.64;100.00;151097.88;10584854;28;20040;-70
2023/10/20 01:14:45;;;;;;;54.60;31.20;;;;;;;9.67;100.00;151105.66;10566079;28;20521;-70
2023/10/20 01:19:47;;;;;;;52.05;31.10;;;;;;;9.79;100.00;151135.34;10584802;28;20088;-70
2023/10/20 01:24:49;;;;;;;63.00;32.13;;;;;;;9.76;100.00;151128.88;10566949;28;20071;-70
2023/10/20 01:29:50;;;;;;;54.53;31.88;;;;;;;9.66;100.00;151101.78;10565793;28;20043;-70
2023/10/20 01:34:53;;;;;;;56.00;31.90;;;;;;;9.67;100.00;151105.66;10583834;28;20065;-68
2023/10/20 01:39:55;;;;;;;56.97;32.38;;;;;;;9.63;100.00;151094.03;10564999;28;20513;-69
2023/10/20 01:44:57;;;;;;;53.88;30.85;;;;;;;9.51;100.00;151064.34;10566909;28;20487;-69
2023/10/20 01:50:00;;;;;;;57.08;32.83;;;;;;;9.65;100.00;151100.50;10565438;28;20035;-69
2023/10/20 01:55:02;;;;;;;59.30;32.60;;;;;;;9.70;100.00;151112.13;10582413;28;20058;-69
2023/10/20 02:00:08;;;;;;;58.67;32.60;;;;;;;9.65;100.00;151100.50;10564503;28;20043;-69
2023/10/20 02:05:13;;;;;;;54.58;31.73;;;;;;;9.56;100.00;151078.56;10584753;28;20452;-69
2023/10/20 02:10:15;;;;;;;61.15;33.38;;;;;;;9.40;100.00;151037.28;10566216;28;20052;-67
2023/10/20 02:15:17;;;;;;;59.90;32.25;;;;;;;9.56;100.00;151077.25;10582122;28;20039;-68
2023/10/20 02:20:22;;;;;;;54.38;32.33;;;;;;;9.28;100.00;151006.31;10563718;28;20108;-68
2023/10/20 02:25:25;;;;;;;57.20;32.17;;;;;;;9.34;100.00;151021.78;10581679;28;20035;-68
2023/10/20 02:30:27;;;;;;;50.30;30.50;;;;;;;9.25;100.00;150999.88;10582924;28;20046;-67
2023/10/20 02:35:29;;;;;;;53.17;30.83;;;;;;;9.30;100.00;151012.78;10581593;28;20499;-68
2023/10/20 02:40:30;;;;;;;51.78;31.38;;;;;;;9.28;100.00;151006.31;10562624;28;20519;-67
2023/10/20 02:45:32;;;;;;;54.72;32.67;;;;;;;9.32;100.00;151017.91;10563227;28;20109;-68
2023/10/20 02:50:35;;;;;;;53.15;31.90;;;;;;;9.44;100.00;151046.31;10565002;28;20496;-67
2023/10/20 02:55:37;;;;;;;62.25;33.50;;;;;;;9.67;100.00;151104.38;10562883;28;20051;-68
2023/10/20 03:00:45;;;;;;;54.63;32.08;;;;;;;9.57;100.00;151081.13;10581753;28;20044;-67
2023/10/20 03:05:48;;;;;;;61.00;33.70;;;;;;;9.38;100.00;151032.09;10562821;28;20089;-68
2023/10/20 03:10:50;;;;;;;61.90;32.83;;;;;;;9.23;100.00;150993.41;10564484;28;20039;-68
2023/10/20 03:15:53;;;;;;;51.25;30.38;;;;;;;9.24;100.00;150997.25;10562611;28;20139;-68
2023/10/20 03:21:02;;;;;;;50.25;29.42;;;;;;;9.20;100.00;150986.94;10581327;28;20115;-68
2023/10/20 03:26:10;;;;;;;60.75;31.83;;;;;;;9.43;100.00;151043.69;10581045;28;20043;-68
2023/10/20 03:31:12;;;;;;;63.03;33.70;;;;;;;9.27;100.00;151005.03;10562524;28;20495;-68
2023/10/20 03:36:14;;;;;;;60.78;33.80;;;;;;;9.48;100.00;151057.94;10563636;28;20050;-68
2023/10/20 03:41:16;;;;;;;61.33;34.30;;;;;;;9.47;100.00;151055.31;10562716;28;20039;-68
2023/10/20 03:46:18;;;;;;;56.85;33.10;;;;;;;9.62;100.00;151091.47;10561814;28;20051;-68
2023/10/20 03:51:21;;;;;;;58.95;32.88;;;;;;;9.71;100.00;151115.97;10586811;28;20065;-68
2023/10/20 03:56:23;;;;;;;59.80;31.80;;;;;;;9.52;100.00;151068.25;10589261;28;20050;-68
2023/10/20 04:01:25;;;;;;;58.33;33.45;;;;;;;9.43;100.00;151043.69;10587406;28;20040;-68
2023/10/20 04:06:27;;;;;;;53.28;32.13;;;;;;;9.63;100.00;151094.03;10587959;28;20071;-68
2023/10/20 04:11:31;;;;;;;57.45;32.97;;;;;;;9.84;100.00;151149.53;10579131;28;20032;-67
2023/10/20 04:16:39;;;;;;;56.13;32.67;;;;;;;9.75;100.00;151126.31;10509756;28;20047;-67
2023/10/20 04:21:43;;;;;;;55.70;32.33;;;;;;;9.89;100.00;151159.84;10544499;28;20544;-68
2023/10/20 04:26:45;;;;;;;58.20;33.83;;;;;;;9.83;100.00;151145.66;10544217;28;20463;-68
2023/10/20 04:52:55;;;;;;;65.95;35.63;;;;;;;9.91;100.00;151166.28;10543119;28;20040;-68
2023/10/20 05:03:31;;;;;;;60.70;33.20;;;;;;;10.11;100.00;151217.91;10525765;28;20122;-67
2023/10/20 05:08:33;;;;;;;63.55;33.65;;;;;;;10.04;100.00;151199.84;10542790;28;20093;-68
2023/10/20 05:13:35;;;;;;;58.50;33.08;;;;;;;10.02;100.00;151193.41;10542761;28;20093;-68
2023/10/20 05:18:38;;;;;;;61.40;34.25;;;;;;;10.08;100.00;151210.16;10542454;28;20044;-68
2023/10/20 05:23:41;;;;;;;52.83;32.28;;;;;;;10.20;100.00;151239.88;10525264;28;20048;-69
2023/10/20 05:28:43;;;;;;;55.13;32.88;;;;;;;10.24;100.00;151248.91;10541633;28;20105;-68
2023/10/20 05:33:45;;;;;;;53.63;30.70;;;;;;;9.98;100.00;151183.06;10541413;28;20500;-68
2023/10/20 05:38:47;;;;;;;50.97;31.90;;;;;;;10.05;100.00;151202.44;10542071;28;20047;-68
2023/10/20 05:43:52;;;;;;;68.22;35.05;;;;;;;10.08;100.00;151210.16;10543113;28;20039;-68
2023/10/20 05:48:54;;;;;;;57.80;34.03;;;;;;;10.06;100.00;151203.75;10540907;28;20040;-68
2023/10/20 05:53:56;;;;;;;59.15;33.03;;;;;;;9.92;100.00;151167.63;10541446;28;20101;-68
2023/10/20 05:58:58;;;;;;;59.20;32.85;;;;;;;10.12;100.00;151219.22;10540381;28;20127;-68
2023/10/20 06:04:00;;;;;;;45.05;29.92;;;;;;;9.85;100.00;151152.09;10541940;28;20435;-68
2023/10/20 06:09:09;;;;;;;56.03;29.48;;;;;;;9.78;100.00;151132.72;10523001;28;20040;-68
2023/10/20 06:14:11;;;;;;;54.97;33.08;;;;;;;9.83;100.00;151145.66;10540828;28;20071;-68
2023/10/20 06:19:13;;;;;;;56.88;31.30;;;;;;;9.79;100.00;151136.63;10521900;28;20079;-68
2023/10/20 06:24:16;;;;;;;52.65;30.27;;;;;;;9.90;100.00;151162.41;10540606;28;20064;-68
2023/10/20 06:34:25;;;;;;;58.35;33.58;;;;;;;10.43;100.00;151298.00;10521727;28;20124;-68
2023/10/20 06:39:27;;;;;;;51.55;33.65;;;;;;;10.11;100.00;151216.63;10538271;28;20088;-69
2023/10/20 06:44:29;;;;;;;53.92;32.83;;;;;;;10.26;100.00;151255.38;10523514;28;20060;-68
2023/10/20 06:49:32;;;;;;;47.75;29.65;;;;;;;10.32;100.00;151269.63;10541578;28;20040;-67
2023/10/20 06:54:34;;;;;;;39.97;26.83;;;;;;;10.48;100.00;151310.91;10521062;28;20052;-67
2023/10/20 06:59:36;;;;;;;27.80;23.13;;;;;;;10.35;100.00;151278.63;10540307;28;20044;-69
2023/10/20 07:04:38;;;;;;;32.03;21.88;;;;;;;10.27;100.00;151256.66;10540814;28;20119;-68
2023/10/20 07:09:44;;;;;;;26.58;20.58;;;;;;;10.37;100.00;151282.53;10523313;28;20047;-67
2023/10/20 07:14:46;;;;;;;25.17;20.35;;;;;;;10.40;100.00;151288.94;10523027;28;20068;-68
2023/10/20 07:19:47;;;;;;;26.17;20.20;;;;;;;10.33;100.00;151273.47;10522368;28;20040;-67
2023/10/20 07:24:49;;;;;;;28.42;19.35;;;;;;;10.22;100.00;151245.00;10527094;28;20067;-68
2023/10/20 07:29:51;;;;;;;21.73;18.33;;;;;;;10.32;100.00;151270.91;10530493;28;20040;-67
2023/10/20 07:34:53;;;;;;;27.05;18.90;;;;;;;10.34;100.00;151274.75;10549135;28;20040;-68
2023/10/20 07:39:54;;;;;;;24.92;18.85;;;;;;;10.28;100.00;151259.28;10546222;28;20047;-68
2023/10/20 07:44:58;;;;;;;19.30;17.33;;;;;;;10.20;100.00;151238.56;10545918;28;20071;-68
2023/10/20 07:50:00;;;;;;;20.75;17.65;;;;;;;10.11;100.00;151217.91;10545734;28;20445;-68
2023/10/20 07:55:02;;;;;;;18.85;16.63;;;;;;;10.06;100.00;151205.03;10546709;28;20047;-68
2023/10/20 08:00:04;;;;;;;20.35;16.65;;;;;;;10.06;100.00;151203.75;10545914;28;20632;-68
2023/10/20 08:05:12;;;;;;;21.42;17.10;;;;;;;10.11;100.00;151216.63;10545200;28;20052;-68
2023/10/20 08:10:14;;;;;;;25.23;18.48;;;;;;;10.10;100.00;151214.06;10544898;28;20385;-68
2023/10/20 08:15:16;;;;;;;18.20;16.35;;;;;;;10.26;100.00;151254.09;10543775;28;20036;-68
2023/10/20 08:20:18;;;;;;;17.73;15.30;;;;;;;10.30;100.00;151265.72;10544601;28;20496;-68
2023/10/20 08:25:20;;;;;;;16.95;15.25;;;;;;;10.21;100.00;151241.16;10526192;28;20040;-68
2023/10/20 08:30:22;;;;;;;17.58;15.80;;;;;;;10.29;100.00;151261.84;10543386;28;20119;-68
2023/10/20 08:35:25;;;;;;;17.67;15.45;;;;;;;10.29;100.00;151263.16;10542749;28;20067;-67
2023/10/20 08:40:32;;;;;;;15.98;14.20;;;;;;;10.25;100.00;151251.53;10540917;28;20484;-68
2023/10/20 08:45:52;;;;;;;21.42;16.45;;;;;;;10.20;100.00;151238.56;10543309;28;20120;-67
2023/10/20 08:50:56;;;;;;;17.52;15.70;;;;;;;10.24;100.00;151248.91;10525530;28;20048;-68
2023/10/20 08:55:58;;;;;;;18.25;14.18;;;;;;;10.15;100.00;151225.69;10524669;28;20077;-68
2023/10/20 09:01:00;;;;;;;16.48;14.85;;;;;;;10.20;100.00;151238.56;10544505;28;20124;-68
2023/10/20 09:06:05;;;;;;;16.27;14.10;;;;;;;10.26;100.00;151254.09;10543256;28;20396;-68
2023/10/20 09:11:08;;;;;;;14.50;13.00;;;;;;;10.20;100.00;151239.88;10542045;28;20043;-68
2023/10/20 09:16:13;;;;;;;15.05;13.60;;;;;;;10.22;100.00;151245.00;10518324;28;20086;-68
2023/10/20 09:21:20;;;;;;;15.73;14.13;;;;;;;10.21;100.00;151241.16;10522554;28;20040;-68
2023/10/20 09:26:23;;;;;;;17.88;14.50;;;;;;;10.24;100.00;151248.91;10541954;28;20044;-68
2023/10/20 09:31:26;;;;;;;17.98;14.60;;;;;;;10.07;100.00;151207.59;10523949;28;20052;-68
2023/10/20 09:36:30;;;;;;;17.00;15.20;;;;;;;10.16;100.00;151229.53;10541706;28;20094;-67
2023/10/20 09:41:34;;;;;;;18.17;14.52;;;;;;;10.08;100.00;151210.16;10543234;28;20059;-67
2023/10/20 09:46:53;;;;;;;17.98;14.85;;;;;;;10.04;100.00;151199.84;10544622;28;20051;-68
2023/10/20 09:51:56;;;;;;;16.13;14.45;;;;;;;10.02;100.00;151194.69;10560341;28;20043;-68
2023/10/20 09:57:05;;;;;;;15.10;13.20;;;;;;;10.08;100.00;151208.88;10536294;28;20040;-68
2023/10/20 10:02:07;;;;;;;18.88;14.95;;;;;;;10.11;100.00;151216.63;10583093;28;20077;-69
2023/10/20 10:07:09;;;;;;;14.88;13.38;;;;;;;9.97;100.00;151180.50;10583656;28;20093;-68
2023/10/20 10:12:16;;;;;;;20.45;14.88;;;;;;;9.90;100.00;151162.41;10583158;28;20043;-68
2023/10/20 10:17:20;;;;;;;15.48;13.63;;;;;;;9.92;100.00;151167.63;10563812;28;20051;-69
2023/10/20 10:22:27;;;;;;;15.75;13.95;;;;;;;9.88;100.00;151158.56;10565279;28;20047;-68
2023/10/20 10:27:29;;;;;;;16.23;13.18;;;;;;;9.84;100.00;151149.53;10583498;28;20043;-68
2023/10/20 10:32:33;;;;;;;19.98;15.45;;;;;;;9.85;100.00;151152.09;10581655;28;20123;-68
2023/10/20 10:37:38;;;;;;;16.27;14.30;;;;;;;9.90;100.00;151163.72;10563354;28;20044;-67
2023/10/20 10:42:47;;;;;;;20.13;16.27;;;;;;;9.88;100.00;151158.56;10581902;28;20047;-68
2023/10/20 10:48:07;;;;;;;18.40;14.73;;;;;;;9.84;100.00;151148.25;10574419;28;20530;-68
2023/10/20 10:53:11;;;;;;;18.63;14.75;;;;;;;9.94;100.00;151174.03;10556096;28;20036;-69
2023/10/20 10:58:14;;;;;;;21.77;13.93;;;;;;;9.93;100.00;151170.19;10540721;28;20071;-68
2023/10/20 11:03:16;;;;;;;22.73;15.45;;;;;;;9.93;100.00;151170.19;10568071;28;20126;-67
2023/10/20 11:08:19;;;;;;;25.33;16.25;;;;;;;9.79;100.00;151135.34;10590293;28;20063;-67
2023/10/20 11:13:21;;;;;;;17.00;14.85;;;;;;;9.76;100.00;151128.88;10571886;28;20466;-68
2023/10/20 11:18:23;;;;;;;26.08;16.20;;;;;;;9.94;100.00;151174.03;10554572;28;20075;-68
2023/10/20 11:23:29;;;;;;;17.90;14.98;;;;;;;10.02;100.00;151193.41;10590077;28;20080;-68
2023/10/20 11:28:32;;;;;;;21.23;13.60;;;;;;;9.96;100.00;151177.88;10571116;28;20050;-68
2023/10/20 11:33:34;;;;;;;17.38;14.95;;;;;;;9.84;100.00;151149.53;10590126;28;20040;-68
2023/10/20 11:38:36;;;;;;;17.15;14.07;;;;;;;9.98;100.00;151183.06;10589139;28;20039;-67
2023/10/20 11:43:40;;;;;;;15.80;13.20;;;;;;;10.04;100.00;151199.84;10570257;28;20039;-67
2023/10/20 11:48:41;;;;;;;19.60;14.65;;;;;;;9.98;100.00;151184.38;10569719;28;20080;-68
2023/10/20 11:53:43;;;;;;;15.75;13.00;;;;;;;10.00;100.00;151189.50;10589957;28;20491;-68
2023/10/20 11:58:45;;;;;;;15.32;13.70;;;;;;;9.96;100.00;151179.22;10587846;28;20427;-68
2023/10/20 12:03:47;;;;;;;23.48;15.30;;;;;;;10.06;100.00;151205.03;10589351;28;20072;-68
2023/10/20 12:08:50;;;;;;;17.40;14.88;;;;;;;10.10;100.00;151215.34;10569636;28;20071;-67
2023/10/20 12:13:52;;;;;;;15.18;13.68;;;;;;;10.19;100.00;151237.28;10589426;28;20040;-67
2023/10/20 12:18:54;;;;;;;17.73;15.02;;;;;;;10.14;100.00;151224.41;10588456;28;20111;-67
2023/10/20 12:23:56;;;;;;;16.58;13.93;;;;;;;10.22;100.00;151243.72;10569911;28;20548;-67
2023/10/20 12:28:58;;;;;;;16.52;14.15;;;;;;;10.29;100.00;151261.84;10588008;28;20082;-68
2023/10/20 12:34:00;;;;;;;18.02;14.00;;;;;;;10.20;100.00;151239.88;10588147;28;20040;-67
2023/10/20 12:39:04;;;;;;;15.27;13.70;;;;;;;10.14;100.00;151223.06;10589038;28;20039;-66
2023/10/20 12:44:07;;;;;;;15.73;13.97;;;;;;;10.15;100.00;151225.69;10569225;28;20064;-69
2023/10/20 12:49:10;;;;;;;16.23;13.70;;;;;;;10.17;100.00;151230.81;10587625;28;20123;-67
2023/10/20 12:54:15;;;;;;;14.57;12.23;;;;;;;10.09;100.00;151212.78;10567634;28;20418;-67
2023/10/20 12:59:19;;;;;;;15.85;11.98;;;;;;;10.10;100.00;151215.34;10586982;28;20050;-68
2023/10/20 13:04:21;;;;;;;13.48;12.15;;;;;;;10.18;100.00;151233.41;10585676;28;20122;-67
2023/10/20 13:09:23;;;;;;;13.27;11.55;;;;;;;10.09;100.00;151211.44;10584913;28;20035;-67
2023/10/20 13:14:26;;;;;;;14.40;13.00;;;;;;;10.10;100.00;151215.34;10584836;28;20050;-68
2023/10/20 13:19:29;;;;;;;18.30;11.80;;;;;;;9.96;100.00;151177.88;10586181;28;20043;-68
2023/10/20 13:24:32;;;;;;;12.05;10.80;;;;;;;9.94;100.00;151172.75;10583828;28;20059;-67
2023/10/20 13:29:34;;;;;;;12.68;11.38;;;;;;;9.97;100.00;151181.78;10584016;28;20093;-67
2023/10/20 13:34:36;;;;;;;13.30;11.23;;;;;;;9.94;100.00;151174.03;10584514;28;20538;-67
2023/10/20 13:39:38;;;;;;;15.20;12.80;;;;;;;9.80;100.00;151137.91;10583943;28;20047;-67
2023/10/20 13:44:40;;;;;;;13.13;10.98;;;;;;;9.77;100.00;151131.44;10586017;28;20058;-70
2023/10/20 13:49:42;;;;;;;14.63;12.00;;;;;;;9.76;100.00;151127.59;10584067;28;20039;-68
2023/10/20 13:54:44;;;;;;;15.00;11.65;;;;;;;9.73;100.00;151121.13;10583755;28;20071;-68
2023/10/20 13:59:45;;;;;;;15.82;12.50;;;;;;;9.77;100.00;151130.16;10583694;28;20097;-68
2023/10/20 14:04:47;;;;;;;16.90;12.20;;;;;;;9.80;100.00;151137.91;10585474;28;20067;-67
2023/10/20 14:09:49;;;;;;;15.00;12.10;;;;;;;9.81;100.00;151141.78;10565231;28;20088;-67
2023/10/20 14:14:51;;;;;;;13.38;11.90;;;;;;;9.91;100.00;151165.00;10583179;28;20519;-68
2023/10/20 14:19:53;;;;;;;14.18;12.63;;;;;;;9.90;100.00;151162.41;10540175;28;20044;-68
2023/10/20 14:24:55;;;;;;;13.13;11.52;;;;;;;10.04;100.00;151199.84;10543221;28;20100;-68
2023/10/20 14:29:57;;;;;;;14.38;12.07;;;;;;;10.06;100.00;151203.75;10522691;28;20044;-68
2023/10/20 14:34:59;;;;;;;13.70;12.20;;;;;;;10.07;100.00;151207.59;10539801;28;20044;-69
2023/10/20 14:40:01;;;;;;;13.50;12.10;;;;;;;10.19;100.00;151236.00;10540234;28;20143;-67
2023/10/20 14:45:03;;;;;;;12.73;11.43;;;;;;;10.13;100.00;151221.78;10539822;28;20114;-68
2023/10/20 14:50:06;;;;;;;12.68;11.38;;;;;;;10.24;100.00;151248.91;10535718;28;20500;-67
2023/10/20 14:55:09;;;;;;;14.60;11.88;;;;;;;10.36;100.00;151279.94;10539286;28;20066;-67
2023/10/20 15:00:11;;;;;;;13.05;11.48;;;;;;;10.27;100.00;151258.00;10539468;28;20040;-68
2023/10/20 15:05:13;;;;;;;12.73;11.48;;;;;;;10.28;100.00;151259.28;10525800;28;20044;-68
2023/10/20 15:10:16;;;;;;;11.75;10.50;;;;;;;10.23;100.00;151246.34;10516862;28;20044;-68
2023/10/20 15:15:18;;;;;;;11.32;10.30;;;;;;;10.07;100.00;151207.59;10528504;28;20036;-68
2023/10/20 15:20:20;;;;;;;11.93;10.15;;;;;;;10.35;100.00;151277.34;10521579;28;20036;-67
2023/10/20 15:25:22;;;;;;;12.27;11.00;;;;;;;10.50;100.00;151316.09;10539232;28;20040;-68
2023/10/20 15:30:23;;;;;;;11.75;10.60;;;;;;;10.54;100.00;151325.13;10540900;28;20071;-68
2023/10/20 15:35:25;;;;;;;12.20;11.13;;;;;;;10.43;100.00;151298.00;10539160;28;20123;-68
2023/10/20 15:40:28;;;;;;;12.27;11.07;;;;;;;10.27;100.00;151256.66;10512113;28;20128;-69
2023/10/20 15:45:30;;;;;;;11.90;10.80;;;;;;;10.21;100.00;151241.16;10484377;28;20131;-68
2023/10/20 15:50:32;;;;;;;12.60;11.30;;;;;;;10.19;100.00;151236.00;10504735;28;20088;-68
2023/10/20 15:55:39;;;;;;;13.30;12.10;;;;;;;10.39;100.00;151286.38;10505872;28;20036;-68
2023/10/20 16:00:46;;;;;;;12.30;11.07;;;;;;;10.26;100.00;151254.09;10486138;28;20098;-69
2023/10/20 16:05:48;;;;;;;;;;;;;;;10.24;100.00;151250.25;10505012;28;20123;-67
2023/10/20 16:10:51;;;;;;;13.60;12.35;;;;;;;10.28;100.00;151260.56;10503980;28;19924;-68
2023/10/20 16:15:53;;;;;;;13.07;11.77;;;;;;;10.15;100.00;151225.69;10505289;28;20629;-67
2023/10/20 16:20:55;;;;;;;13.00;11.70;;;;;;;10.13;100.00;151221.78;10503206;28;20069;-69
2023/10/20 16:25:56;;;;;;;13.40;12.20;;;;;;;10.12;100.00;151219.22;10503231;28;20147;-68
2023/10/20 16:31:00;;;;;;;13.10;11.80;;;;;;;10.05;100.00;151201.16;10503585;28;20136;-69
2023/10/20 16:36:02;;;;;;;15.98;14.50;;;;;;;10.15;100.00;151225.69;10504171;28;20041;-68
2023/10/20 16:41:03;;;;;;;14.80;13.32;;;;;;;9.98;100.00;151184.38;10503398;28;20090;-69
2023/10/20 16:46:05;;;;;;;14.05;12.75;;;;;;;10.15;100.00;151225.69;10484777;28;20504;-68
2023/10/20 16:51:07;;;;;;;14.05;12.65;;;;;;;10.17;100.00;151230.81;10502966;28;20051;-69
2023/10/20 16:56:09;;;;;;;12.57;10.93;;;;;;;10.12;100.00;151219.22;10483301;28;20132;-68
2023/10/20 17:01:11;;;;;;;15.00;13.52;;;;;;;9.98;100.00;151183.06;10504334;28;20400;-68
2023/10/20 17:06:13;;;;;;;15.10;12.93;;;;;;;9.99;100.00;151185.66;10501686;28;20050;-70
2023/10/20 17:11:15;;;;;;;12.13;11.02;;;;;;;10.06;100.00;151205.03;10500568;28;20033;-67
2023/10/20 17:16:17;;;;;;;13.55;12.35;;;;;;;10.03;100.00;151197.25;10542376;28;20072;-67
2023/10/20 17:21:19;;;;;;;13.52;12.32;;;;;;;10.33;100.00;151272.19;10545003;28;20404;-68
2023/10/20 17:26:21;;;;;;;15.57;13.98;;;;;;;10.20;100.00;151238.56;10543179;28;20044;-68
2023/10/20 17:31:22;;;;;;;16.33;13.60;;;;;;;10.05;100.00;151202.44;10543395;28;20043;-68
2023/10/20 17:36:24;;;;;;;16.75;15.05;;;;;;;9.90;100.00;151162.41;10543434;28;20078;-68
2023/10/20 17:41:26;;;;;;;14.52;13.32;;;;;;;9.91;100.00;151166.28;10527579;28;20492;-67
2023/10/20 17:46:28;;;;;;;15.45;13.95;;;;;;;9.91;100.00;151165.00;10525358;28;20407;-68
2023/10/20 17:51:30;;;;;;;14.15;12.85;;;;;;;9.83;100.00;151146.94;10543713;28;20439;-68
2023/10/20 17:56:32;;;;;;;15.25;13.75;;;;;;;9.96;100.00;151177.88;10542818;28;20071;-68
2023/10/20 18:01:34;;;;;;;13.32;12.15;;;;;;;9.84;100.00;151149.53;10544382;28;20093;-68
2023/10/20 18:06:35;;;;;;;14.63;13.23;;;;;;;9.83;100.00;151146.94;10543233;28;20098;-68
2023/10/20 18:11:37;;;;;;;14.85;13.57;;;;;;;10.20;100.00;151238.56;10539650;28;20047;-68
2023/10/20 18:16:39;;;;;;;15.07;13.70;;;;;;;10.04;100.00;151199.84;10499803;28;20435;-68
2023/10/20 18:21:41;;;;;;;13.95;12.57;;;;;;;9.94;100.00;151174.03;10500614;28;20086;-69
2023/10/20 18:26:42;;;;;;;14.90;13.55;;;;;;;10.10;100.00;151214.06;10501863;28;20047;-68
2023/10/20 18:31:44;;;;;;;17.17;15.68;;;;;;;10.00;100.00;151189.50;10499407;28;20463;-69
2023/10/20 18:36:46;;;;;;;17.25;15.50;;;;;;;9.88;100.00;151158.56;10499329;28;20040;-68
2023/10/20 18:41:48;;;;;;;17.30;15.55;;;;;;;9.85;100.00;151152.09;10499377;28;20037;-71
2023/10/20 18:46:50;;;;;;;16.15;14.50;;;;;;;10.25;100.00;151251.53;10502303;28;20044;-69
2023/10/20 18:51:52;;;;;;;18.33;14.55;;;;;;;10.10;100.00;151215.34;10499973;28;20453;-68
2023/10/20 18:56:54;;;;;;;14.90;13.18;;;;;;;9.83;100.00;151146.94;10499943;28;20040;-69
2023/10/20 19:01:56;;;;;;;15.63;14.13;;;;;;;10.00;100.00;151189.50;10499247;28;20047;-69
2023/10/20 19:06:58;;;;;;;15.73;14.00;;;;;;;9.84;100.00;151148.25;10499414;28;20051;-68
2023/10/20 19:11:59;;;;;;;17.60;15.90;;;;;;;9.88;100.00;151158.56;10481920;28;20052;-69
2023/10/20 19:17:01;;;;;;;15.82;14.23;;;;;;;9.80;100.00;151139.19;10499376;28;20048;-67
2023/10/20 19:22:03;;;;;;;16.40;14.80;;;;;;;9.81;100.00;151141.78;10505297;28;20115;-68
2023/10/20 19:27:05;;;;;;;17.48;15.68;;;;;;;9.66;100.00;151101.78;10506541;28;20115;-67
2023/10/20 19:32:07;;;;;;;17.65;15.90;;;;;;;9.73;100.00;151121.13;10509087;28;20127;-69
2023/10/20 19:37:09;;;;;;;21.60;17.48;;;;;;;9.69;100.00;151110.78;10488128;28;20055;-68
2023/10/20 19:42:11;;;;;;;18.42;16.60;;;;;;;9.82;100.00;151143.06;10506199;28;20484;-68
2023/10/20 19:47:13;;;;;;;20.60;18.55;;;;;;;10.15;100.00;151225.69;10506573;28;20572;-69
2023/10/20 19:52:15;;;;;;;19.98;17.77;;;;;;;9.98;100.00;151183.06;10490944;28;20092;-68
2023/10/20 19:57:16;;;;;;;17.77;16.05;;;;;;;10.19;100.00;151237.28;10505868;28;20041;-67
2023/10/20 20:02:18;;;;;;;16.70;15.00;;;;;;;10.23;100.00;151246.34;10505571;28;20119;-68
2023/10/20 20:07:23;;;;;;;19.80;17.42;;;;;;;10.26;100.00;151255.38;10506208;28;20053;-68
2023/10/20 20:12:24;;;;;;;17.50;15.75;;;;;;;10.47;100.00;151308.31;10489293;28;20120;-69
2023/10/20 20:17:26;;;;;;;17.92;14.02;;;;;;;10.29;100.00;151263.16;10506640;28;20045;-69
2023/10/20 20:22:29;;;;;;;16.00;14.48;;;;;;;10.40;100.00;151290.22;10505719;28;20056;-68
2023/10/20 20:27:31;;;;;;;19.10;16.15;;;;;;;10.34;100.00;151276.06;10506324;28;20036;-68
2023/10/20 20:32:33;;;;;;;17.30;14.63;;;;;;;10.08;100.00;151210.16;10505967;28;20095;-68
2023/10/20 20:37:35;;;;;;;15.93;14.43;;;;;;;10.09;100.00;151212.78;10507093;28;20098;-69
2023/10/20 20:42:37;;;;;;;17.30;15.65;;;;;;;10.55;100.00;151327.72;10486776;28;20044;-69
2023/10/20 20:47:38;;;;;;;16.02;14.48;;;;;;;10.32;100.00;151269.63;10506758;28;20127;-69
2023/10/20 20:52:40;;;;;;;16.52;15.05;;;;;;;10.25;100.00;151252.81;10508107;28;20090;-70
2023/10/20 20:57:42;;;;;;;15.07;13.77;;;;;;;10.08;100.00;151210.16;10493006;28;20052;-69
2023/10/20 21:02:44;;;;;;;16.90;15.18;;;;;;;10.43;100.00;151296.72;10506143;28;20120;-68
2023/10/20 21:07:45;;;;;;;16.42;14.73;;;;;;;10.28;100.00;151259.28;10502976;28;20098;-69
2023/10/20 21:12:47;;;;;;;16.35;14.75;;;;;;;10.03;100.00;151197.25;10484680;28;20108;-68
2023/10/20 21:17:49;;;;;;;15.93;14.43;;;;;;;9.85;100.00;151152.09;10485659;28;20051;-68
2023/10/20 21:22:53;;;;;;;15.73;13.60;;;;;;;9.88;100.00;151157.28;10502291;28;20039;-68
2023/10/20 21:27:55;;;;;;;16.48;14.98;;;;;;;10.20;100.00;151238.56;10501530;28;20044;-69
2023/10/20 21:32:57;;;;;;;17.55;15.85;;;;;;;10.26;100.00;151255.38;10485990;28;20045;-71
2023/10/20 21:37:59;;;;;;;20.35;18.30;;;;;;;10.29;100.00;151261.84;10502949;28;20055;-72
2023/10/20 21:43:01;;;;;;;18.65;16.83;;;;;;;10.41;100.00;151291.56;10506815;28;20124;-71
2023/10/20 21:48:04;;;;;;;20.25;17.15;;;;;;;10.09;100.00;151212.78;10502357;28;20048;-71
2023/10/20 21:53:06;;;;;;;16.40;14.65;;;;;;;10.01;100.00;151190.84;10501616;28;20040;-70
2023/10/20 21:58:07;;;;;;;16.45;14.82;;;;;;;9.87;100.00;151155.94;10501882;28;20036;-70
2023/10/20 22:03:09;;;;;;;17.52;15.88;;;;;;;9.80;100.00;151137.91;10504837;28;20043;-71
2023/10/20 22:08:11;;;;;;;18.95;17.15;;;;;;;9.91;100.00;151165.00;10502556;28;20071;-71
2023/10/20 22:13:13;;;;;;;17.27;14.70;;;;;;;9.91;100.00;151165.00;10484003;28;20082;-71
2023/10/20 22:18:15;;;;;;;16.70;15.07;;;;;;;9.82;100.00;151143.06;10500942;28;20044;-71
2023/10/20 22:23:22;;;;;;;20.38;17.10;;;;;;;9.81;100.00;151141.78;10504014;28;20058;-71
2023/10/20 22:28:24;;;;;;;17.90;15.65;;;;;;;9.96;100.00;151177.88;10500341;28;20043;-69
2023/10/20 22:33:26;;;;;;;17.67;15.98;;;;;;;10.14;100.00;151224.41;10501239;28;20552;-70
2023/10/20 22:38:28;;;;;;;16.60;15.13;;;;;;;10.28;100.00;151259.28;10483406;28;20040;-71
2023/10/20 22:43:29;;;;;;;17.48;15.82;;;;;;;10.11;100.00;151217.91;10500357;28;20079;-71
2023/10/20 22:48:31;;;;;;;15.45;13.85;;;;;;;10.15;100.00;151225.69;10505036;28;20049;-70
2023/10/20 22:53:33;;;;;;;17.85;16.02;;;;;;;10.43;100.00;151298.00;10500633;28;20068;-70
2023/10/20 22:58:35;;;;;;;16.67;15.07;;;;;;;10.33;100.00;151273.47;10506701;28;20036;-71
2023/10/20 23:03:37;;;;;;;17.65;15.57;;;;;;;10.52;100.00;151321.22;10506905;28;20489;-69